South Purmela, Texas
Current Conditions -  °F | °C
As of 5:55 PM on Wednesday 26 Nov 2014 (Local Time) from KGOP Reporting Station
Clear Clear  
Wind Chill: 59°   Ceiling: Unl
Heat Index: 59°   Visibility: 10mi
Dew Point: 32°   Wind: 0mph
Humidity: 36%   Direction: NA
Pressure: 30.27"   Gusts: NA
Location:  31.4714°N, 97.9089°W
Report Text: KGOP 262355Z AUTO 00000KT 10SM CLR 15/00 A3027 RMK AO2 PWINO
Loading
Personal Weather Stations






























Interactive Weather Map New forecast layout! Learn more

10-Day Weather Forecast

Advertisements
Track Severe Weather on mobile